Página principal
METAR-TAF:

METAR-TAF

Aeroportos :

Kulob, Tadjiquistão

latitude: 37-59-18N, longitude: 069-48-18E, altura: 699 m

Observação actual do tempo

O boletim foi feito há 28 minutos, às 12:30 UTC
Vento 4 kt de nordeste
Temperatura 8°C
Humidade 49%
Pressão 1025 hPa
Visibilidade 10 km ou mais

METAR: UTDK 161230Z 05002MPS 9999 NSC 08/M02 Q1025 R01/09//70 RMK QFE711/0948

Hora: 17:58 (12:58 UTC)

Previsão

O boletim foi feito há 58 minutos, às 12:00 UTC
Previsão válida de 16 às 13 UTC a 16 às 22 UTC
Vento 4 kt com direcção variável
Visibilidade: 6000 m
Poucas nuvensa uma altura de 6600 ft
Nuvens dispersasa uma altura de 13000 ft
Temporariamente
de 16 às 13 UTC a 16 às 22 UTC
Vento 10 kt de nor-nordeste
Visibilidade: 3100 m
neblina

TAF: UTDK 161200Z 1613/1622 VRB02MPS 6000 FEW066 SCT130 TEMPO 1613/1622 03005MPS 3100 BR

Observações e previsões do tempo de mais de 4000 aeroportos (mensagens METAR e TAF).

As estações disponíveis são os pontos amarelos e vermelhos sobre o mapa.

Mova o rato sobre o mapa para ver o nome da estação.

Depois clique no ponto para visualizar as observações e previsões meteorológicas.

Para alterar o mapa : clique nos botões verdes com uma cruz preta para aumentar o zoom; no botão verde com uma pitada de zoom; ou nas setas verdes para mapas adjacentes.


METAR-TAF: